Time;durP1;ratioP1;P1;durP2;ratioP2;P2;SDS_P1;SDS_P2;PMS_P1;PMS_P2;Temp;Humidity;BMP_temperature;BMP_pressure;BME280_temperature;BME280_humidity;BME280_pressure;Samples;Min_cycle;Max_cycle;Signal;HPM_P1;HPM_P2
2021/10/12 00:01:59;;;;;;;;;;;8.10;99.90;;;;;;4992876;28;20353;-74
2021/10/12 00:04:26;;;;;;;;;;;8.10;99.90;;;;;;4975158;28;19926;-73
2021/10/12 00:06:52;;;;;;;;;;;8.10;99.90;;;;;;4975495;28;19969;-74
2021/10/12 00:09:19;;;;;;;;;;;8.10;99.90;;;;;;4992545;28;19948;-73
2021/10/12 00:11:52;;;;;;;;;;;8.00;99.90;;;;;;4973633;28;20308;-73
2021/10/12 00:14:19;;;;;;;;;;;8.00;99.90;;;;;;4975224;28;20353;-74
2021/10/12 00:16:46;;;;;;;;;;;8.00;99.90;;;;;;4980232;28;19981;-73
2021/10/12 00:19:13;;;;;;;;;;;8.00;99.90;;;;;;4990835;28;20299;-73
2021/10/12 00:21:40;;;;;;;;;;;8.00;99.90;;;;;;4994931;28;20201;-73
2021/10/12 00:24:09;;;;;;;;;;;8.00;99.90;;;;;;4988773;28;19925;-73
2021/10/12 00:26:40;;;;;;;;;;;8.00;99.90;;;;;;5002909;28;20340;-73
2021/10/12 00:29:14;;;;;;;;;;;8.00;99.90;;;;;;4986709;28;20317;-74
2021/10/12 00:31:46;;;;;;;;;;;8.10;99.90;;;;;;4976439;28;19926;-73
2021/10/12 00:34:19;;;;;;;;;;;8.10;99.90;;;;;;4991831;28;19976;-74
2021/10/12 00:36:50;;;;;;;;;;;8.10;99.90;;;;;;4991504;28;19926;-74
2021/10/12 00:39:22;;;;;;;;;;;8.10;99.90;;;;;;4975401;28;20452;-74
2021/10/12 00:41:50;;;;;;;;;;;8.20;99.90;;;;;;4975454;28;20377;-74
2021/10/12 00:44:22;;;;;;;;;;;8.20;99.90;;;;;;4991844;28;19935;-73
2021/10/12 00:46:49;;;;;;;;;;;8.20;99.90;;;;;;4976090;28;19933;-74
2021/10/12 00:49:20;;;;;;;;;;;8.20;99.90;;;;;;4975594;28;19926;-74
2021/10/12 00:51:52;;;;;;;;;;;8.10;99.90;;;;;;4975201;28;19926;-73
2021/10/12 00:54:19;;;;;;;;;;;8.10;99.90;;;;;;4991208;28;19954;-73
2021/10/12 00:56:51;;;;;;;;;;;8.10;99.90;;;;;;4991512;28;19997;-74
2021/10/12 00:59:18;;;;;;;;;;;8.00;99.90;;;;;;4975393;28;19926;-74
2021/10/12 01:01:45;;;;;;;;;;;8.00;99.90;;;;;;4990833;28;19961;-74
2021/10/12 01:04:12;;;;;;;;;;;8.00;99.90;;;;;;4990816;28;20385;-74
2021/10/12 01:06:44;;;;;;;;;;;8.00;99.90;;;;;;4992390;28;19933;-73
2021/10/12 01:09:10;;;;;;;;;;;8.00;99.90;;;;;;4991110;28;20304;-74
2021/10/12 01:11:37;;;;;;;;;;;8.10;99.90;;;;;;4974796;28;19933;-74
2021/10/12 01:14:04;;;;;;;;;;;8.10;99.90;;;;;;4974694;28;19930;-73
2021/10/12 01:16:36;;;;;;;;;;;8.10;99.90;;;;;;4975675;28;19929;-74
2021/10/12 01:19:04;;;;;;;;;;;8.10;99.90;;;;;;4991215;28;19932;-74
2021/10/12 01:21:40;;;;;;;;;;;8.10;99.90;;;;;;4975856;28;19926;-74
2021/10/12 01:24:07;;;;;;;;;;;8.10;99.90;;;;;;4992393;28;20348;-74
2021/10/12 01:26:34;;;;;;;;;;;8.10;99.90;;;;;;4975304;28;19986;-74
2021/10/12 01:29:03;;;;;;;;;;;8.10;99.90;;;;;;4981120;28;20403;-74
2021/10/12 01:31:34;;;;;;;;;;;8.20;99.90;;;;;;4994126;28;19936;-74
2021/10/12 01:34:24;;;;;;;;;;;8.20;99.90;;;;;;4993982;28;19926;-74
2021/10/12 01:36:51;;;;;;;;;;;8.10;99.90;;;;;;4994084;28;19929;-74
2021/10/12 01:39:23;;;;;;;;;;;8.20;99.90;;;;;;5010984;28;20201;-74
2021/10/12 01:41:50;;;;;;;;;;;8.20;99.90;;;;;;4994244;28;19929;-73
2021/10/12 01:44:21;;;;;;;;;;;8.20;99.90;;;;;;5010735;28;19995;-74
2021/10/12 01:46:48;;;;;;;;;;;8.20;99.90;;;;;;4994260;28;19925;-74
2021/10/12 01:49:20;;;;;;;;;;;8.20;99.90;;;;;;5010989;28;19932;-74
2021/10/12 01:51:47;;;;;;;;;;;8.20;99.90;;;;;;4994129;28;19976;-74
2021/10/12 01:54:15;;;;;;;;;;;8.20;99.90;;;;;;4994058;28;19929;-74
2021/10/12 01:56:48;;;;;;;;;;;8.20;99.90;;;;;;4994255;28;19972;-74
2021/10/12 01:59:20;;;;;;;;;;;8.20;99.90;;;;;;4994449;28;19925;-74
2021/10/12 02:01:47;;;;;;;;;;;8.20;99.90;;;;;;4994229;28;20362;-74
2021/10/12 02:04:14;;;;;;;;;;;8.20;99.90;;;;;;4994088;28;20376;-74
2021/10/12 02:06:41;;;;;;;;;;;8.20;99.90;;;;;;4996270;28;20053;-74
2021/10/12 02:09:12;;;;;;;;;;;8.20;99.90;;;;;;4998147;28;19929;-74
2021/10/12 02:11:44;;;;;;;;;;;8.20;99.90;;;;;;4997740;28;20385;-74
2021/10/12 02:14:16;;;;;;;;;;;8.20;99.90;;;;;;5013252;28;19926;-74
2021/10/12 02:16:43;;;;;;;;;;;8.20;99.90;;;;;;4997832;28;19984;-74
2021/10/12 02:19:16;;;;;;;;;;;8.20;99.90;;;;;;5014140;28;19930;-74
2021/10/12 02:21:42;;;;;;;;;;;8.20;99.90;;;;;;4997414;28;19932;-74
2021/10/12 02:24:14;;;;;;;;;;;8.20;99.90;;;;;;4997163;28;20355;-74
2021/10/12 02:26:46;;;;;;;;;;;8.10;99.90;;;;;;4998436;28;19926;-74
2021/10/12 02:29:18;;;;;;;;;;;8.10;99.90;;;;;;4997662;28;19933;-73
2021/10/12 02:31:45;;;;;;;;;;;8.10;99.90;;;;;;4997383;28;20449;-73
2021/10/12 02:34:17;;;;;;;;;;;8.10;99.90;;;;;;5015027;28;19925;-74
2021/10/12 02:36:43;;;;;;;;;;;8.10;99.90;;;;;;4997379;28;20308;-73
2021/10/12 02:39:15;;;;;;;;;;;8.10;99.90;;;;;;4997317;28;19930;-74
2021/10/12 02:41:47;;;;;;;;;;;8.10;99.90;;;;;;5006704;28;19925;-74
2021/10/12 02:44:14;;;;;;;;;;;8.10;99.90;;;;;;5013385;28;19926;-74
2021/10/12 02:46:40;;;;;;;;;;;8.10;99.90;;;;;;4997300;28;19925;-74
2021/10/12 02:49:07;;;;;;;;;;;8.10;99.90;;;;;;4997222;28;19926;-74
2021/10/12 02:51:34;;;;;;;;;;;8.10;99.90;;;;;;4997065;28;19925;-74
2021/10/12 02:54:06;;;;;;;;;;;8.10;99.90;;;;;;4997673;28;19933;-74
2021/10/12 02:56:37;;;;;;;;;;;8.10;99.90;;;;;;4996838;28;19926;-74
2021/10/12 02:59:09;;;;;;;;;;;8.10;99.90;;;;;;5013515;28;19929;-73
2021/10/12 03:01:41;;;;;;;;;;;8.10;99.90;;;;;;5013280;28;19925;-74
2021/10/12 03:04:14;;;;;;;;;;;8.10;99.90;;;;;;4996614;28;19926;-74
2021/10/12 03:06:46;;;;;;;;;;;8.10;99.90;;;;;;4996795;28;19930;-74
2021/10/12 03:09:17;;;;;;;;;;;8.10;99.90;;;;;;5013349;28;19932;-74
2021/10/12 03:11:44;;;;;;;;;;;8.10;99.90;;;;;;4996506;28;20016;-74
2021/10/12 03:14:16;;;;;;;;;;;8.10;99.90;;;;;;4997479;28;20367;-74
2021/10/12 03:16:48;;;;;;;;;;;8.10;99.90;;;;;;4996404;28;19932;-74
2021/10/12 03:19:16;;;;;;;;;;;8.00;99.90;;;;;;4996758;28;20304;-73
2021/10/12 03:22:00;;;;;;;;;;;8.00;99.90;;;;;;5012975;28;19925;-74
2021/10/12 03:24:32;;;;;;;;;;;8.00;99.90;;;;;;4996291;28;19925;-74
2021/10/12 03:27:06;;;;;;;;;;;7.90;99.90;;;;;;5012914;28;19926;-74
2021/10/12 03:29:38;;;;;;;;;;;7.90;99.90;;;;;;4985834;28;19977;-73
2021/10/12 03:32:05;;;;;;;;;;;7.90;99.90;;;;;;4976907;28;19934;-74
2021/10/12 03:34:32;;;;;;;;;;;7.90;99.90;;;;;;4992866;28;19930;-74
2021/10/12 03:37:04;;;;;;;;;;;7.80;99.90;;;;;;4977868;28;20296;-74
2021/10/12 03:39:31;;;;;;;;;;;7.90;99.90;;;;;;4976775;28;19926;-78
2021/10/12 03:41:58;;;;;;;;;;;7.90;99.90;;;;;;4991596;28;19933;-73
2021/10/12 03:44:25;;;;;;;;;;;7.90;99.90;;;;;;4975396;28;20308;-74
2021/10/12 03:46:52;;;;;;;;;;;7.90;99.90;;;;;;4960591;28;20010;-73
2021/10/12 03:49:18;;;;;;;;;;;7.90;99.90;;;;;;4976572;28;19957;-73
2021/10/12 03:51:45;;;;;;;;;;;7.90;99.90;;;;;;4975952;28;19926;-74
2021/10/12 03:54:17;;;;;;;;;;;7.90;99.90;;;;;;4976663;28;19926;-74
2021/10/12 03:56:44;;;;;;;;;;;7.90;99.90;;;;;;4975831;28;19929;-74
2021/10/12 03:59:11;;;;;;;;;;;7.90;99.90;;;;;;4959959;28;19969;-74
2021/10/12 04:01:43;;;;;;;;;;;7.90;99.90;;;;;;4975817;28;19925;-74
2021/10/12 04:04:15;;;;;;;;;;;8.00;99.90;;;;;;4992963;28;19932;-74
2021/10/12 04:06:46;;;;;;;;;;;8.00;99.90;;;;;;4975631;28;19930;-73
2021/10/12 04:09:18;;;;;;;;;;;8.00;99.90;;;;;;4976738;28;19925;-74
2021/10/12 04:11:48;;;;;;;;;;;8.00;99.90;;;;;;4975423;28;19926;-74
2021/10/12 04:14:15;;;;;;;;;;;7.90;99.90;;;;;;4991422;28;20363;-74
2021/10/12 04:16:41;;;;;;;;;;;7.90;99.90;;;;;;4990875;28;19979;-74
2021/10/12 04:19:08;;;;;;;;;;;7.80;99.90;;;;;;4996461;28;19933;-74
2021/10/12 04:21:35;;;;;;;;;;;7.80;99.90;;;;;;4994680;28;20017;-74
2021/10/12 04:24:01;;;;;;;;;;;7.80;99.90;;;;;;4994420;28;20021;-74
2021/10/12 04:26:33;;;;;;;;;;;7.70;99.90;;;;;;5011866;28;19935;-74
2021/10/12 04:29:00;;;;;;;;;;;7.70;99.90;;;;;;4993545;28;20351;-73
2021/10/12 04:31:35;;;;;;;;;;;7.70;99.90;;;;;;5010550;28;19929;-74
2021/10/12 04:34:07;;;;;;;;;;;7.70;99.90;;;;;;5010944;28;19929;-73
2021/10/12 04:36:34;;;;;;;;;;;7.60;99.90;;;;;;4992697;28;20410;-74
2021/10/12 04:39:06;;;;;;;;;;;7.70;99.90;;;;;;4959127;28;19926;-73
2021/10/12 04:41:33;;;;;;;;;;;7.70;99.90;;;;;;4977903;28;19937;-73
2021/10/12 04:44:00;;;;;;;;;;;7.60;99.90;;;;;;4974946;28;20439;-74
2021/10/12 04:46:27;;;;;;;;;;;7.60;99.90;;;;;;4972659;28;19984;-74
2021/10/12 04:48:59;;;;;;;;;;;7.60;99.90;;;;;;4963306;28;20013;-74
2021/10/12 04:51:31;;;;;;;;;;;7.60;99.90;;;;;;4994074;28;19948;-73
2021/10/12 04:53:58;;;;;;;;;;;7.60;99.90;;;;;;4994098;28;20351;-74
2021/10/12 04:56:25;;;;;;;;;;;7.60;99.90;;;;;;4993918;28;19933;-74
2021/10/12 04:58:52;;;;;;;;;;;7.60;99.90;;;;;;5011869;28;19925;-74
2021/10/12 05:01:18;;;;;;;;;;;7.60;99.90;;;;;;4994103;28;19926;-74
2021/10/12 05:03:45;;;;;;;;;;;7.60;99.90;;;;;;4993489;28;19929;-74
2021/10/12 05:06:12;;;;;;;;;;;7.70;99.90;;;;;;4993242;28;19980;-74
2021/10/12 05:08:43;;;;;;;;;;;7.70;99.90;;;;;;4993845;28;19979;-73
2021/10/12 05:11:15;;;;;;;;;;;7.70;99.90;;;;;;5010672;28;19926;-74
2021/10/12 05:13:49;;;;;;;;;;;7.80;99.90;;;;;;4976788;28;19937;-74
2021/10/12 05:16:16;;;;;;;;;;;7.70;99.90;;;;;;4990401;28;19929;-74
2021/10/12 05:19:08;;;;;;;;;;;7.70;99.90;;;;;;4971457;28;19940;-74
2021/10/12 05:21:40;;;;;;;;;;;7.70;99.90;;;;;;4967244;28;19930;-74
2021/10/12 05:24:07;;;;;;;;;;;7.70;99.90;;;;;;4955946;28;20011;-73
2021/10/12 05:26:34;;;;;;;;;;;7.70;99.90;;;;;;4971673;28;19936;-74
2021/10/12 05:29:09;;;;;;;;;;;7.70;99.90;;;;;;4980815;28;20291;-74
2021/10/12 05:31:36;;;;;;;;;;;7.70;99.90;;;;;;4990395;28;19926;-74
2021/10/12 05:34:09;;;;;;;;;;;7.70;99.90;;;;;;4958987;28;19932;-73
2021/10/12 05:36:41;;;;;;;;;;;7.70;99.90;;;;;;4975757;28;19925;-74
2021/10/12 05:39:08;;;;;;;;;;;7.70;99.90;;;;;;4974039;28;19937;-73
2021/10/12 05:41:39;;;;;;;;;;;7.70;99.90;;;;;;4979499;28;19925;-73
2021/10/12 05:44:06;;;;;;;;;;;7.70;99.90;;;;;;4979662;28;19937;-74
2021/10/12 05:46:40;;;;;;;;;;;7.80;99.90;;;;;;4991546;28;19930;-73
2021/10/12 05:49:07;;;;;;;;;;;7.80;99.90;;;;;;4977819;28;20412;-73
2021/10/12 05:51:34;;;;;;;;;;;7.80;99.90;;;;;;4982572;28;19925;-73
2021/10/12 05:54:01;;;;;;;;;;;7.90;99.90;;;;;;4977716;28;20299;-74
2021/10/12 05:56:31;;;;;;;;;;;7.90;99.90;;;;;;4980932;28;20448;-73
2021/10/12 05:59:02;;;;;;;;;;;7.90;99.90;;;;;;4982273;28;19926;-73
2021/10/12 06:01:36;;;;;;;;;;;7.90;99.90;;;;;;4976290;28;20348;-73
2021/10/12 06:04:08;;;;;;;;;;;7.80;99.90;;;;;;4978024;28;20512;-73
2021/10/12 06:06:35;;;;;;;;;;;7.80;99.90;;;;;;4977236;28;19937;-73
2021/10/12 06:09:03;;;;;;;;;;;7.90;99.90;;;;;;4977439;28;19926;-73
2021/10/12 06:11:30;;;;;;;;;;;7.90;99.90;;;;;;4994676;28;19926;-73
2021/10/12 06:14:01;;;;;;;;;;;7.90;99.90;;;;;;4978095;28;19933;-73
2021/10/12 06:16:28;;;;;;;;;;;7.90;99.90;;;;;;4989522;28;20026;-73
2021/10/12 06:18:55;;;;;;;;;;;8.00;99.90;;;;;;5014512;28;19926;-73
2021/10/12 06:21:27;;;;;;;;;;;8.00;99.90;;;;;;4991965;28;19944;-73
2021/10/12 06:23:59;;;;;;;;;;;8.10;99.90;;;;;;5011285;28;19926;-73
2021/10/12 06:26:30;;;;;;;;;;;8.10;99.90;;;;;;5013894;28;20351;-73
2021/10/12 06:28:57;;;;;;;;;;;8.10;99.90;;;;;;4978335;28;20305;-73
2021/10/12 06:31:24;;;;;;;;;;;8.00;99.90;;;;;;4976915;28;20472;-74
2021/10/12 06:33:51;;;;;;;;;;;8.00;99.90;;;;;;4988880;28;19930;-73
2021/10/12 06:36:22;;;;;;;;;;;8.00;99.90;;;;;;4991882;28;19926;-73
2021/10/12 06:38:54;;;;;;;;;;;8.00;99.90;;;;;;4977215;28;19925;-73
2021/10/12 06:41:26;;;;;;;;;;;8.10;99.90;;;;;;4993039;28;19926;-74
2021/10/12 06:43:53;;;;;;;;;;;8.10;99.90;;;;;;4982836;28;19925;-73
2021/10/12 06:46:24;;;;;;;;;;;8.10;99.90;;;;;;4977339;28;19929;-73
2021/10/12 06:48:56;;;;;;;;;;;8.10;99.90;;;;;;4994348;28;20305;-73
2021/10/12 06:51:28;;;;;;;;;;;8.10;99.90;;;;;;4975891;28;19929;-73
2021/10/12 06:54:00;;;;;;;;;;;8.10;99.90;;;;;;4994550;28;19932;-73
2021/10/12 06:56:27;;;;;;;;;;;8.10;99.90;;;;;;4995994;28;19930;-73
2021/10/12 06:58:54;;;;;;;;;;;8.20;99.90;;;;;;4996357;28;20399;-73
2021/10/12 07:01:21;;;;;;;;;;;8.10;99.90;;;;;;4986799;28;19932;-73
2021/10/12 07:03:52;;;;;;;;;;;8.10;99.90;;;;;;4994502;28;19926;-74
2021/10/12 07:06:19;;;;;;;;;;;8.10;99.90;;;;;;4976369;28;19926;-73
2021/10/12 07:08:51;;;;;;;;;;;8.10;99.90;;;;;;4993559;28;19926;-73
2021/10/12 07:11:23;;;;;;;;;;;8.10;99.90;;;;;;4961379;28;19957;-73
2021/10/12 07:13:55;;;;;;;;;;;8.10;99.90;;;;;;4976848;28;19926;-74
2021/10/12 07:16:22;;;;;;;;;;;8.10;99.90;;;;;;4976289;28;19933;-74
2021/10/12 07:18:53;;;;;;;;;;;8.10;99.90;;;;;;4966010;28;19932;-74
2021/10/12 07:21:21;;;;;;;;;;;8.10;99.90;;;;;;4996211;28;19929;-74
2021/10/12 07:23:53;;;;;;;;;;;8.10;99.90;;;;;;4995447;28;19929;-74
2021/10/12 07:26:19;;;;;;;;;;;8.10;99.90;;;;;;4991244;28;19948;-74
2021/10/12 07:28:46;;;;;;;;;;;8.20;99.90;;;;;;4977174;28;19926;-74
2021/10/12 07:31:13;;;;;;;;;;;8.10;99.90;;;;;;4995833;28;19925;-73
2021/10/12 07:33:40;;;;;;;;;;;8.20;99.90;;;;;;4976621;28;19941;-73
2021/10/12 07:36:11;;;;;;;;;;;8.20;99.90;;;;;;4960747;28;20393;-73
2021/10/12 07:38:43;;;;;;;;;;;8.20;99.90;;;;;;4975933;28;20040;-73
2021/10/12 07:41:12;;;;;;;;;;;8.10;99.90;;;;;;4976459;28;19930;-74
2021/10/12 07:43:38;;;;;;;;;;;8.20;99.90;;;;;;4995769;28;19926;-73
2021/10/12 07:46:05;;;;;;;;;;;8.20;99.90;;;;;;4976152;28;19926;-73
2021/10/12 07:48:37;;;;;;;;;;;8.20;99.90;;;;;;4978091;28;20307;-73
2021/10/12 07:51:09;;;;;;;;;;;8.20;99.90;;;;;;4996136;28;20281;-74
2021/10/12 07:53:41;;;;;;;;;;;8.20;99.90;;;;;;4983893;28;20336;-73
2021/10/12 07:56:10;;;;;;;;;;;8.20;99.90;;;;;;4994270;28;19936;-73
2021/10/12 07:58:43;;;;;;;;;;;8.30;99.90;;;;;;4977218;28;20281;-73
2021/10/12 08:01:15;;;;;;;;;;;8.30;99.90;;;;;;5000450;28;19933;-73
2021/10/12 08:03:46;;;;;;;;;;;8.30;99.90;;;;;;4988995;28;19971;-74
2021/10/12 08:06:18;;;;;;;;;;;8.30;99.90;;;;;;4973154;28;19929;-73
2021/10/12 08:08:50;;;;;;;;;;;8.40;99.90;;;;;;4981768;28;19926;-74
2021/10/12 08:11:17;;;;;;;;;;;8.40;99.90;;;;;;5006925;28;20396;-73
2021/10/12 08:13:45;;;;;;;;;;;8.40;99.90;;;;;;4989577;28;19933;-73
2021/10/12 08:16:20;;;;;;;;;;;8.40;99.90;;;;;;4989996;28;19937;-73
2021/10/12 08:18:52;;;;;;;;;;;8.40;99.90;;;;;;4960195;28;19976;-74
2021/10/12 08:21:25;;;;;;;;;;;8.40;99.90;;;;;;4976672;28;19947;-74
2021/10/12 08:23:52;;;;;;;;;;;8.50;99.90;;;;;;4988290;28;19932;-73
2021/10/12 08:26:33;;;;;;;;;;;8.50;99.90;;;;;;5109140;27;20395;-73
2021/10/12 08:29:05;;;;;;;;;;;8.50;99.90;;;;;;5091881;28;19931;-73
2021/10/12 08:31:32;;;;;;;;;;;8.50;99.90;;;;;;5085424;28;19931;-73
2021/10/12 08:33:59;;;;;;;;;;;8.50;99.90;;;;;;5087862;28;19924;-73
2021/10/12 08:36:30;;;;;;;;;;;8.50;99.90;;;;;;5071504;28;19924;-73
2021/10/12 08:38:57;;;;;;;;;;;8.50;99.90;;;;;;5071218;28;19935;-73
2021/10/12 08:41:30;;;;;;;;;;;8.60;99.90;;;;;;5103616;28;19932;-73
2021/10/12 08:44:02;;;;;;;;;;;8.70;99.90;;;;;;5103912;28;19924;-73
2021/10/12 08:46:29;;;;;;;;;;;8.70;99.90;;;;;;5121206;28;19925;-73
2021/10/12 08:49:01;;;;;;;;;;;8.80;99.90;;;;;;5087398;28;19925;-73
2021/10/12 08:51:28;;;;;;;;;;;8.80;99.90;;;;;;5087379;28;19989;-73
2021/10/12 08:53:59;;;;;;;;;;;8.90;99.90;;;;;;5070945;28;19925;-73
2021/10/12 08:56:31;;;;;;;;;;;8.90;99.90;;;;;;5071135;28;19925;-73
2021/10/12 08:59:03;;;;;;;;;;;8.90;99.90;;;;;;5087383;28;19924;-72
2021/10/12 09:01:31;;;;;;;;;;;8.80;99.90;;;;;;5087026;28;19924;-73
2021/10/12 09:06:28;;;;;;;;;;;8.90;99.90;;;;;;5086486;28;19935;-73
2021/10/12 09:09:04;;;;;;;;;;;8.90;99.90;;;;;;5103133;28;20283;-73
2021/10/12 09:11:32;;;;;;;;;;;8.90;99.90;;;;;;5104179;28;19939;-73
2021/10/12 09:14:07;;;;;;;;;;;8.80;99.90;;;;;;5086128;28;19982;-73
2021/10/12 09:16:41;;;;;;;;;;;8.90;99.90;;;;;;5076793;28;19925;-73
2021/10/12 09:19:14;;;;;;;;;;;9.00;99.90;;;;;;5067396;28;19924;-73
2021/10/12 09:21:46;;;;;;;;;;;9.10;99.90;;;;;;5095447;28;19929;-73
2021/10/12 09:24:14;;;;;;;;;;;9.20;99.90;;;;;;5061672;28;19924;-73
2021/10/12 09:26:49;;;;;;;;;;;9.30;99.90;;;;;;5087417;28;19998;-72
2021/10/12 09:30:06;;;;;;;;;;;9.30;99.90;;;;;;5086484;28;20326;-73
2021/10/12 09:32:22;;;;;;;;;;;9.30;99.90;;;;;;5081565;28;19931;-73
2021/10/12 09:35:01;;;;;;;;;;;9.40;99.90;;;;;;5068837;28;19931;-73
2021/10/12 09:37:28;;;;;;;;;;;9.30;99.90;;;;;;5075272;28;19928;-73
2021/10/12 09:40:17;;;;;;;;;;;9.30;99.90;;;;;;5056877;28;20295;-73
2021/10/12 09:42:48;;;;;;;;;;;9.30;99.90;;;;;;5036538;28;19929;-73
2021/10/12 09:45:15;;;;;;;;;;;9.30;99.90;;;;;;5044445;28;19929;-73
2021/10/12 09:47:47;;;;;;;;;;;9.20;99.90;;;;;;5073792;28;19928;-73
2021/10/12 09:50:19;;;;;;;;;;;9.20;99.90;;;;;;5105009;28;20383;-73
2021/10/12 09:52:46;;;;;;;;;;;9.20;99.90;;;;;;5072281;28;19936;-73
2021/10/12 09:55:18;;;;;;;;;;;9.20;99.90;;;;;;5105865;28;19932;-73
2021/10/12 09:57:45;;;;;;;;;;;9.20;99.90;;;;;;5106064;28;19928;-72
2021/10/12 10:00:19;;;;;;;;;;;9.10;99.90;;;;;;5106219;28;19924;-73
2021/10/12 10:02:51;;;;;;;;;;;9.10;99.90;;;;;;5072281;28;19924;-73
2021/10/12 10:05:23;;;;;;;;;;;9.10;99.90;;;;;;5073102;28;20383;-72
2021/10/12 10:07:56;;;;;;;;;;;9.10;99.90;;;;;;5072275;28;19928;-73
2021/10/12 10:10:22;;;;;;;;;;;9.20;99.90;;;;;;5055834;28;19924;-73
2021/10/12 10:12:55;;;;;;;;;;;9.20;99.90;;;;;;5071908;28;20414;-73
2021/10/12 10:15:27;;;;;;;;;;;9.30;99.90;;;;;;5072030;28;20015;-73
2021/10/12 10:17:56;;;;;;;;;;;9.30;99.90;;;;;;5073323;28;19924;-73
2021/10/12 10:20:23;;;;;;;;;;;9.20;99.90;;;;;;5072406;28;19931;-72
2021/10/12 10:22:52;;;;;;;;;;;9.30;99.90;;;;;;5073096;28;20327;-72
2021/10/12 10:25:27;;;;;;;;;;;9.30;99.90;;;;;;5071494;28;19924;-73
2021/10/12 10:28:15;;;;;;;;;;;9.30;99.90;;;;;;5056074;28;20399;-73
2021/10/12 10:30:53;;;;;;;;;;;9.40;99.90;;;;;;5072118;28;19928;-73
2021/10/12 10:33:26;;;;;;;;;;;9.30;99.90;;;;;;5071778;28;20375;-73
2021/10/12 10:35:57;;;;;;;;;;;9.40;99.90;;;;;;5071172;28;19932;-73
2021/10/12 10:38:25;;;;;;;;;;;9.40;99.90;;;;;;5055177;28;19924;-73
2021/10/12 10:41:03;;;;;;;;;;;9.40;99.90;;;;;;5089142;28;19946;-73
2021/10/12 10:43:47;;;;;;;;;;;9.40;99.90;;;;;;5073228;28;19936;-72
2021/10/12 10:46:31;;;;;;;;;;;9.40;99.90;;;;;;5087332;28;19924;-73
2021/10/12 10:49:03;;;;;;;;;;;9.50;99.90;;;;;;5102739;28;19945;-73
2021/10/12 10:51:47;;;;;;;;;;;9.60;99.90;;;;;;5071750;28;19936;-72
2021/10/12 10:54:49;;;;;;;;;;;9.50;99.90;;;;;;5071286;28;19936;-73
2021/10/12 10:57:22;;;;;;;;;;;9.50;99.90;;;;;;5057913;28;20314;-72
2021/10/12 11:00:12;;;;;;;;;;;9.50;99.90;;;;;;5072508;28;19978;-73
2021/10/12 11:02:45;;;;;;;;;;;9.50;99.90;;;;;;5055236;28;19928;-73
2021/10/12 11:05:35;;;;;;;;;;;9.50;99.90;;;;;;5071327;28;19924;-73
2021/10/12 11:08:18;;;;;;;;;;;9.50;99.90;;;;;;5071285;28;19931;-72
2021/10/12 11:10:54;;;;;;;;;;;9.40;99.90;;;;;;5071026;28;19928;-73
2021/10/12 11:13:40;;;;;;;;;;;9.40;99.90;;;;;;5072451;28;19931;-73
2021/10/12 11:16:14;;;;;;;;;;;9.40;99.90;;;;;;5070504;28;20584;-73
2021/10/12 11:18:47;;;;;;;;;;;9.40;99.90;;;;;;5070961;28;19931;-73
2021/10/12 11:21:15;;;;;;;;;;;9.40;99.90;;;;;;5070816;28;19931;-72
2021/10/12 11:23:50;;;;;;;;;;;9.40;99.90;;;;;;5055118;28;19925;-72
2021/10/12 11:26:18;;;;;;;;;;;9.40;99.90;;;;;;5053799;28;20512;-72
2021/10/12 11:28:52;;;;;;;;;;;9.50;99.90;;;;;;5070724;28;19983;-73
2021/10/12 11:31:25;;;;;;;;;;;9.50;99.90;;;;;;5070714;28;19932;-72
2021/10/12 11:33:59;;;;;;;;;;;9.60;99.90;;;;;;5070701;28;19972;-73
2021/10/12 11:36:32;;;;;;;;;;;9.60;99.90;;;;;;5070762;28;20354;-73
2021/10/12 11:39:00;;;;;;;;;;;9.70;99.90;;;;;;5070634;28;19932;-73
2021/10/12 11:41:30;;;;;;;;;;;9.70;99.90;;;;;;5070364;28;19925;-72
2021/10/12 11:44:10;;;;;;;;;;;9.80;99.90;;;;;;5052012;28;19931;-73
2021/10/12 11:46:49;;;;;;;;;;;9.80;99.90;;;;;;5051892;28;20012;-72
2021/10/12 11:49:18;;;;;;;;;;;9.80;99.90;;;;;;5050603;28;19931;-73
2021/10/12 11:51:50;;;;;;;;;;;9.70;99.90;;;;;;5052267;28;19924;-73
2021/10/12 11:54:27;;;;;;;;;;;9.60;99.90;;;;;;5069999;28;19947;-73
2021/10/12 11:57:00;;;;;;;;;;;9.60;99.90;;;;;;5070108;28;19924;-73
2021/10/12 11:59:31;;;;;;;;;;;9.60;99.90;;;;;;5103668;28;20054;-72
2021/10/12 12:02:07;;;;;;;;;;;9.70;99.90;;;;;;5085767;28;19924;-73
2021/10/12 12:04:35;;;;;;;;;;;9.60;99.90;;;;;;5069506;28;19928;-74
2021/10/12 12:07:04;;;;;;;;;;;9.70;99.90;;;;;;5086986;28;20286;-72
2021/10/12 12:09:39;;;;;;;;;;;9.70;99.90;;;;;;5054754;28;20345;-73
2021/10/12 12:12:06;;;;;;;;;;;9.80;99.90;;;;;;5053871;28;19994;-73
2021/10/12 12:14:34;;;;;;;;;;;9.80;99.90;;;;;;5069365;28;19925;-72
2021/10/12 12:17:07;;;;;;;;;;;9.90;99.90;;;;;;5067575;28;19924;-72
2021/10/12 12:19:45;;;;;;;;;;;9.80;99.90;;;;;;5066043;28;19931;-73
2021/10/12 12:22:19;;;;;;;;;;;9.70;99.90;;;;;;5069617;28;19943;-72
2021/10/12 12:24:53;;;;;;;;;;;9.70;99.90;;;;;;5068927;28;19929;-73
2021/10/12 12:27:35;;;;;;;;;;;9.70;99.90;;;;;;5069371;28;19931;-73
2021/10/12 12:30:08;;;;;;;;;;;9.70;99.90;;;;;;5053105;28;20554;-73
2021/10/12 12:32:53;;;;;;;;;;;9.70;99.90;;;;;;5060085;28;19932;-73
2021/10/12 12:35:20;;;;;;;;;;;9.70;99.90;;;;;;5097006;28;20315;-72
2021/10/12 12:37:55;;;;;;;;;;;9.70;99.90;;;;;;5069253;28;19931;-73
2021/10/12 12:40:24;;;;;;;;;;;9.80;99.90;;;;;;5069535;28;19928;-73
2021/10/12 12:42:51;;;;;;;;;;;9.80;99.90;;;;;;5068624;28;19970;-73
2021/10/12 12:45:24;;;;;;;;;;;9.90;99.90;;;;;;5069244;28;19924;-72
2021/10/12 12:47:52;;;;;;;;;;;10.00;99.90;;;;;;5053053;28;19924;-73
2021/10/12 12:50:26;;;;;;;;;;;10.00;99.90;;;;;;5085823;28;19931;-73
2021/10/12 12:52:54;;;;;;;;;;;10.10;99.90;;;;;;5102885;28;19967;-72
2021/10/12 12:55:34;;;;;;;;;;;10.20;99.90;;;;;;5068981;28;19928;-73
2021/10/12 12:58:01;;;;;;;;;;;10.20;99.90;;;;;;5070823;28;19925;-72
2021/10/12 13:00:53;;;;;;;;;;;10.20;99.90;;;;;;5069966;28;20297;-73
2021/10/12 13:03:26;;;;;;;;;;;10.20;99.90;;;;;;5077016;28;19932;-73
2021/10/12 13:05:53;;;;;;;;;;;10.30;99.90;;;;;;5064626;28;19925;-72
2021/10/12 13:08:20;;;;;;;;;;;10.30;99.90;;;;;;5068623;28;19931;-73
2021/10/12 13:10:47;;;;;;;;;;;10.30;99.90;;;;;;5084909;28;19932;-72
2021/10/12 13:13:19;;;;;;;;;;;10.30;99.90;;;;;;5073651;28;20417;-73
2021/10/12 13:15:51;;;;;;;;;;;10.30;99.90;;;;;;5074231;28;19929;-72
2021/10/12 13:18:19;;;;;;;;;;;10.30;99.90;;;;;;5057001;28;20018;-72
2021/10/12 13:20:46;;;;;;;;;;;10.20;99.90;;;;;;5056484;28;19964;-72
2021/10/12 13:23:13;;;;;;;;;;;10.20;99.90;;;;;;5073163;28;19925;-72
2021/10/12 13:25:45;;;;;;;;;;;10.20;99.90;;;;;;5073789;28;19924;-73
2021/10/12 13:28:11;;;;;;;;;;;10.20;99.90;;;;;;5056593;28;19924;-72
2021/10/12 13:30:38;;;;;;;;;;;10.40;99.90;;;;;;5072264;28;19932;-72
2021/10/12 13:33:07;;;;;;;;;;;10.50;99.90;;;;;;5072701;28;20027;-73
2021/10/12 13:35:39;;;;;;;;;;;10.70;99.90;;;;;;5072274;28;19932;-72
2021/10/12 13:38:11;;;;;;;;;;;10.80;99.90;;;;;;5072952;28;19931;-73
2021/10/12 13:40:38;;;;;;;;;;;10.80;99.90;;;;;;5072937;28;19924;-73
2021/10/12 13:43:06;;;;;;;;;;;10.80;99.90;;;;;;5072248;28;19932;-72
2021/10/12 13:45:33;;;;;;;;;;;10.90;99.90;;;;;;5055671;28;19932;-73
2021/10/12 13:48:05;;;;;;;;;;;10.80;99.90;;;;;;5090044;28;19924;-73
2021/10/12 13:50:31;;;;;;;;;;;10.60;99.90;;;;;;5072795;28;19930;-73
2021/10/12 13:52:58;;;;;;;;;;;10.60;99.90;;;;;;5072197;28;19940;-73
2021/10/12 13:55:25;;;;;;;;;;;10.50;99.90;;;;;;5072060;28;19931;-72
2021/10/12 13:57:59;;;;;;;;;;;10.40;99.90;;;;;;5071841;28;19985;-72
2021/10/12 14:00:26;;;;;;;;;;;10.30;99.90;;;;;;5072480;28;19924;-72
2021/10/12 14:02:53;;;;;;;;;;;10.20;99.90;;;;;;5072400;28;19924;-72
2021/10/12 14:05:20;;;;;;;;;;;10.10;99.90;;;;;;5072015;28;19974;-72
2021/10/12 14:07:47;;;;;;;;;;;10.10;99.90;;;;;;5072251;28;19935;-72
2021/10/12 14:10:14;;;;;;;;;;;10.00;99.90;;;;;;5054915;28;19970;-73
2021/10/12 14:12:46;;;;;;;;;;;10.10;99.90;;;;;;5071726;28;19928;-72
2021/10/12 14:15:18;;;;;;;;;;;10.10;99.90;;;;;;5071771;28;19924;-72
2021/10/12 14:17:50;;;;;;;;;;;10.10;99.90;;;;;;5072116;28;20284;-72
2021/10/12 14:20:17;;;;;;;;;;;10.00;99.90;;;;;;5072007;28;20023;-73
2021/10/12 14:22:50;;;;;;;;;;;10.00;99.90;;;;;;5071521;28;19932;-73
2021/10/12 14:25:24;;;;;;;;;;;10.10;99.90;;;;;;5071574;28;19966;-73
2021/10/12 14:27:54;;;;;;;;;;;10.00;99.90;;;;;;5088344;28;20007;-72
2021/10/12 14:30:21;;;;;;;;;;;10.00;99.90;;;;;;5071649;28;19928;-72
2021/10/12 14:32:48;;;;;;;;;;;10.00;99.90;;;;;;5055059;28;19924;-72
2021/10/12 14:35:20;;;;;;;;;;;10.10;99.90;;;;;;5072525;28;19952;-72
2021/10/12 14:37:51;;;;;;;;;;;10.20;99.90;;;;;;5071555;28;19932;-73
2021/10/12 14:40:19;;;;;;;;;;;10.20;99.90;;;;;;5054978;28;19932;-73
2021/10/12 14:42:51;;;;;;;;;;;10.20;99.90;;;;;;5072030;28;20015;-73
2021/10/12 14:45:25;;;;;;;;;;;10.20;99.90;;;;;;5054265;28;19931;-73
2021/10/12 14:47:57;;;;;;;;;;;10.20;99.90;;;;;;5065741;28;19933;-73
2021/10/12 14:50:29;;;;;;;;;;;10.10;99.90;;;;;;5066825;28;20023;-72
2021/10/12 14:52:55;;;;;;;;;;;10.10;99.90;;;;;;5052074;28;20015;-73